Airfield :
LOGIN :

Register | Disclaimer

   EN    FR    IT 

 










Legend :    VFR   Marginal VFR   IFR   Intensive IFR   Very Intensive IFR
Visi :
Ceiling :
>= 8 km
>= 3000ft
5 to 8 km
1000 to 3000 ft
1500m to 5 km
500 to 1000 ft
800 to 1500m
200 to 500 ft
< 800m
< 200 ft
Symbols :   Thunderstorms  Fog  Heavy snow  Heavy precipitations  Wind > 20 kt
SIGMETs :     Misc.  Thunderstorms  Icing  Turbulence  Mountain Waves  Volcanic Ashes







- Airport Elevation : 1115 ft
- IATA code : GRZ


LOWG - Graz

CURRENT METAR :
  • 122150Z VRB01KT 1200 R17/P1500U R35/0550N BCFG FEW180 05/05 Q1022 TEMPO 3000

EXPIRED METARs :
  • 122120Z VRB02KT 4000 0500W R17/1400U R35/P1500U BCFG FEW180 06/06 Q1022 TEMPO 0600
  • 122050Z VRB02KT 8000 0500W R17/P1500D R35/P1500D BCFG FEW180 07/06 Q1022 TEMPO 0600
  • 122020Z 18003KT 150V280 9999 MIFG FEW180 06/05 Q1022 TEMPO 1200 BCFG
  • 121950Z VRB02KT 9999 MIFG FEW180 08/07 Q1022 TEMPO 2000 BCFG
  • 121920Z 35002KT 9999 MIFG FEW180 09/08 Q1022 TEMPO 2000 BCFG
  • 121850Z VRB01KT CAVOK 08/07 Q1022 NOSIG

TAF AMD TAF LOWG
Valid from the 12 at 20:00 until the 13 at 18:00 UTC


122051Z 1220/1318 VRB02KT CAVOK TX15/1313Z TN04/1305Z
TEMPO 1221/1308 0300 BCFG NSC
PROB30
TEMPO 1303/1307 FG VV001
No reported NOTAMs for that airfield.



MET'MAP, your aeronautical weather chart ! - Copyright ORBIFLY December 2007 - Disclaimer

ORBIFLY MET'MAP TEAM :

Programming & Development : Alexandra Zaïnal
Concept & Development : Baudouin d'Aumeries
Co-Development & Prog : Marc-Olivier Méhu
Technical & hardware support : Manuel Goepfert

Contact : metmap@orbifly.com




SOURCES & CREDITS :

   NOAA